Time;durP1;ratioP1;P1;durP2;ratioP2;P2;SDS_P1;SDS_P2;PMS_P1;PMS_P2;Temp;Humidity;BMP_temperature;BMP_pressure;BME280_temperature;BME280_humidity;BME280_pressure;Samples;Min_cycle;Max_cycle;Signal;HPM_P1;HPM_P2
2024/04/04 00:02:15;;;;;;;9.95;3.97;;;10.80;90.30;;;;;;5058932;28;20036;-74
2024/04/04 00:04:41;;;;;;;12.13;4.93;;;10.90;90.40;;;;;;5061286;28;20094;-73
2024/04/04 00:07:07;;;;;;;10.38;3.08;;;10.90;90.60;;;;;;5059117;28;20358;-74
2024/04/04 00:09:32;;;;;;;10.15;3.25;;;10.90;90.90;;;;;;5061289;28;20041;-75
2024/04/04 00:11:58;;;;;;;9.40;2.83;;;10.90;90.90;;;;;;5061255;28;20040;-74
2024/04/04 00:14:24;;;;;;;9.68;2.95;;;11.00;91.10;;;;;;5060541;28;20720;-73
2024/04/04 00:16:50;;;;;;;8.60;3.53;;;10.90;91.30;;;;;;5059386;28;20048;-74
2024/04/04 00:19:15;;;;;;;9.30;3.45;;;11.00;91.40;;;;;;5061832;28;20032;-73
2024/04/04 00:21:41;;;;;;;9.35;2.97;;;11.00;91.70;;;;;;5064053;28;20093;-73
2024/04/04 00:24:07;;;;;;;11.02;3.30;;;11.10;91.90;;;;;;5061514;28;20384;-73
2024/04/04 00:26:33;;;;;;;8.60;3.17;;;11.00;92.20;;;;;;5059696;28;20079;-73
2024/04/04 00:28:59;;;;;;;11.10;3.05;;;11.10;92.50;;;;;;5054329;28;20036;-75
2024/04/04 00:31:24;;;;;;;8.15;2.83;;;11.10;92.50;;;;;;5061227;28;20037;-73
2024/04/04 00:33:50;;;;;;;6.47;2.50;;;11.10;92.70;;;;;;5065661;28;20058;-73
2024/04/04 00:36:16;;;;;;;8.43;3.13;;;11.10;92.80;;;;;;5060336;28;20035;-74
2024/04/04 00:38:41;;;;;;;9.50;2.88;;;11.10;93.00;;;;;;5060092;28;20895;-74
2024/04/04 00:41:07;;;;;;;8.55;2.80;;;11.20;93.10;;;;;;5070582;28;20025;-72
2024/04/04 00:43:34;;;;;;;7.13;2.50;;;11.20;93.30;;;;;;5060598;28;20036;-73
2024/04/04 00:46:02;;;;;;;10.27;3.65;;;11.20;93.50;;;;;;5059779;28;20028;-74
2024/04/04 00:48:28;;;;;;;9.52;2.50;;;11.30;93.80;;;;;;5060509;28;20032;-73
2024/04/04 00:50:54;;;;;;;7.07;2.40;;;11.30;94.00;;;;;;5060132;28;20754;-73
2024/04/04 00:53:23;;;;;;;7.32;2.78;;;11.30;94.20;;;;;;5060104;28;20071;-73
2024/04/04 00:55:49;;;;;;;7.53;2.80;;;11.30;94.30;;;;;;5057236;28;20114;-75
2024/04/04 00:58:19;;;;;;;9.05;2.88;;;11.40;94.50;;;;;;5061824;28;20120;-73
2024/04/04 01:00:45;;;;;;;9.45;2.70;;;11.40;94.60;;;;;;5058652;28;20024;-72
2024/04/04 01:03:11;;;;;;;9.27;2.70;;;11.40;94.80;;;;;;5050941;28;20028;-73
2024/04/04 01:05:37;;;;;;;7.35;2.65;;;11.40;94.90;;;;;;5051116;28;20032;-74
2024/04/04 01:08:04;;;;;;;10.05;2.65;;;11.40;95.10;;;;;;5058568;28;20024;-73
2024/04/04 01:10:30;;;;;;;7.18;2.88;;;11.30;95.30;;;;;;5061312;28;20024;-76
2024/04/04 01:12:56;;;;;;;6.70;2.55;;;11.40;95.40;;;;;;5062262;28;20082;-74
2024/04/04 01:15:21;;;;;;;6.65;2.42;;;11.40;95.60;;;;;;5057246;28;20086;-73
2024/04/04 01:17:47;;;;;;;9.02;2.92;;;11.40;95.80;;;;;;5059029;28;21071;-73
2024/04/04 01:20:13;;;;;;;7.60;2.85;;;11.50;95.90;;;;;;5063843;28;20432;-73
2024/04/04 01:22:38;;;;;;;6.68;2.97;;;11.50;96.20;;;;;;5059836;28;20029;-74
2024/04/04 01:25:05;;;;;;;7.30;2.58;;;11.50;96.40;;;;;;5056567;28;20067;-74
2024/04/04 01:27:30;;;;;;;6.53;2.20;;;11.60;96.50;;;;;;5057466;28;20029;-75
2024/04/04 01:29:56;;;;;;;8.98;2.72;;;11.60;96.70;;;;;;5051751;28;20477;-75
2024/04/04 01:32:22;;;;;;;8.55;2.55;;;11.70;96.80;;;;;;5052475;28;20041;-74
2024/04/04 01:34:47;;;;;;;8.65;2.40;;;11.80;96.80;;;;;;5056132;28;20052;-72
2024/04/04 01:37:13;;;;;;;7.35;2.50;;;11.80;96.90;;;;;;5058735;28;20032;-73
2024/04/04 01:39:39;;;;;;;10.40;2.75;;;11.80;96.80;;;;;;5056953;28;20323;-72
2024/04/04 01:42:05;;;;;;;8.85;2.58;;;11.90;96.80;;;;;;5059060;28;20423;-73
2024/04/04 01:44:30;;;;;;;11.90;2.85;;;11.90;96.90;;;;;;5054174;28;20116;-73
2024/04/04 01:46:56;;;;;;;10.82;3.17;;;12.00;96.90;;;;;;5066631;28;20056;-77
2024/04/04 01:49:22;;;;;;;8.00;2.70;;;11.90;97.00;;;;;;5059316;28;20544;-73
2024/04/04 01:51:48;;;;;;;13.07;3.05;;;12.00;97.10;;;;;;5057969;28;20117;-75
2024/04/04 01:54:15;;;;;;;11.77;3.13;;;12.00;97.00;;;;;;5058006;28;20067;-74
2024/04/04 01:56:41;;;;;;;14.93;3.20;;;12.00;97.00;;;;;;5063150;28;20077;-75
2024/04/04 01:59:07;;;;;;;11.68;3.17;;;12.10;97.10;;;;;;5062292;28;20024;-74
2024/04/04 02:01:33;;;;;;;10.60;3.20;;;12.10;97.10;;;;;;5060356;28;20028;-75
2024/04/04 02:03:59;;;;;;;11.10;3.28;;;12.10;97.10;;;;;;5057908;28;20036;-73
2024/04/04 02:06:25;;;;;;;11.98;3.78;;;12.10;97.10;;;;;;5060578;28;20024;-73
2024/04/04 02:08:51;;;;;;;8.70;3.10;;;12.10;97.00;;;;;;5048904;28;20033;-74
2024/04/04 02:11:16;;;;;;;15.40;3.60;;;12.20;97.00;;;;;;5059807;28;20033;-73
2024/04/04 02:13:42;;;;;;;12.52;3.50;;;12.20;96.90;;;;;;5056830;28;20113;-73
2024/04/04 02:16:11;;;;;;;13.07;3.60;;;12.20;96.90;;;;;;5059001;28;20086;-73
2024/04/04 02:18:37;;;;;;;13.65;3.55;;;12.20;96.90;;;;;;5065409;28;20075;-73
2024/04/04 02:21:04;;;;;;;18.10;3.65;;;12.30;96.80;;;;;;5041481;28;20024;-74
2024/04/04 02:23:30;;;;;;;17.63;3.67;;;12.30;96.80;;;;;;5050539;28;20029;-74
2024/04/04 02:25:57;;;;;;;12.93;3.22;;;12.30;96.80;;;;;;5047697;28;20032;-75
2024/04/04 02:28:23;;;;;;;15.60;4.32;;;12.30;96.80;;;;;;5049447;28;20020;-74
2024/04/04 02:30:49;;;;;;;17.45;4.38;;;12.30;96.90;;;;;;5049841;28;20096;-76
2024/04/04 02:33:15;;;;;;;19.45;3.90;;;12.40;96.90;;;;;;5058471;28;20112;-74
2024/04/04 02:35:51;;;;;;;18.40;4.05;;;12.40;96.90;;;;;;5054559;28;20410;-73
2024/04/04 02:38:16;;;;;;;17.67;4.03;;;12.40;96.80;;;;;;5048318;28;20771;-74
2024/04/04 02:40:43;;;;;;;17.27;4.22;;;12.40;96.70;;;;;;5055046;28;20012;-72
2024/04/04 02:43:08;;;;;;;16.75;4.03;;;12.40;96.70;;;;;;5052721;28;20075;-73
2024/04/04 02:45:36;;;;;;;13.07;3.88;;;12.40;96.70;;;;;;5058754;28;20081;-74
2024/04/04 02:48:01;;;;;;;15.27;3.67;;;12.40;96.60;;;;;;5062532;28;20063;-72
2024/04/04 02:50:28;;;;;;;12.25;3.78;;;12.50;96.60;;;;;;5056974;28;20099;-75
2024/04/04 02:52:54;;;;;;;17.50;4.40;;;12.50;96.60;;;;;;5057359;28;20032;-74
2024/04/04 02:55:19;;;;;;;20.67;4.95;;;12.60;96.50;;;;;;5059634;28;20676;-72
2024/04/04 02:57:45;;;;;;;15.50;4.20;;;12.60;96.50;;;;;;5053819;28;20028;-74
2024/04/04 03:00:11;;;;;;;15.48;3.90;;;12.60;96.50;;;;;;5039799;28;20021;-73
2024/04/04 03:02:37;;;;;;;17.77;3.92;;;12.60;96.40;;;;;;5066141;28;20042;-74
2024/04/04 03:05:04;;;;;;;18.73;4.00;;;12.60;96.40;;;;;;5056481;28;20025;-73
2024/04/04 03:07:29;;;;;;;17.80;4.20;;;12.60;96.30;;;;;;5056664;28;20025;-72
2024/04/04 03:09:55;;;;;;;16.80;4.60;;;12.60;96.40;;;;;;5053033;28;20086;-73
2024/04/04 03:12:21;;;;;;;16.95;4.57;;;12.60;96.30;;;;;;5068529;28;20033;-73
2024/04/04 03:14:46;;;;;;;22.85;4.72;;;12.60;96.30;;;;;;5057765;28;20040;-73
2024/04/04 03:17:12;;;;;;;14.40;4.05;;;12.60;96.40;;;;;;5059841;28;20050;-74
2024/04/04 03:19:38;;;;;;;18.15;4.28;;;12.60;96.30;;;;;;5038379;28;20036;-74
2024/04/04 03:22:03;;;;;;;17.70;4.63;;;12.60;96.30;;;;;;5055762;28;20063;-73
2024/04/04 03:24:29;;;;;;;19.33;4.00;;;12.60;96.30;;;;;;5053435;28;20079;-74
2024/04/04 03:26:55;;;;;;;15.93;4.13;;;12.60;96.40;;;;;;5064734;28;20571;-74
2024/04/04 03:29:20;;;;;;;17.17;5.10;;;12.60;96.40;;;;;;5056237;28;20094;-74
2024/04/04 03:31:46;;;;;;;17.80;3.78;;;12.60;96.40;;;;;;5061662;28;20467;-73
2024/04/04 03:34:12;;;;;;;17.65;3.65;;;12.60;96.40;;;;;;5059338;28;20035;-74
2024/04/04 03:36:37;;;;;;;17.20;3.97;;;12.60;96.30;;;;;;5061291;28;20032;-73
2024/04/04 03:39:03;;;;;;;15.30;4.15;;;12.60;96.30;;;;;;5061865;28;20512;-72
2024/04/04 03:41:29;;;;;;;17.15;4.50;;;12.60;96.30;;;;;;5057560;28;20044;-73
2024/04/04 03:43:55;;;;;;;20.33;4.47;;;12.60;96.40;;;;;;5060072;28;20134;-74
2024/04/04 03:46:20;;;;;;;14.35;3.80;;;12.70;96.50;;;;;;5059852;28;20021;-70
2024/04/04 03:48:46;;;;;;;15.32;4.60;;;12.60;96.50;;;;;;5061638;28;20356;-74
2024/04/04 03:51:12;;;;;;;20.30;4.50;;;12.60;96.60;;;;;;5060669;28;20028;-72
2024/04/04 03:53:37;;;;;;;17.02;4.03;;;12.60;96.60;;;;;;5059674;28;20040;-73
2024/04/04 03:56:03;;;;;;;17.42;3.90;;;12.60;96.60;;;;;;5061252;28;20047;-73
2024/04/04 03:58:28;;;;;;;12.27;3.88;;;12.60;96.60;;;;;;5065974;28;20044;-75
2024/04/04 04:00:54;;;;;;;13.25;4.45;;;12.60;96.60;;;;;;5058725;28;20041;-74
2024/04/04 04:03:20;;;;;;;14.68;3.83;;;12.60;96.60;;;;;;5060536;28;20033;-74
2024/04/04 04:05:46;;;;;;;14.63;4.43;;;12.70;96.60;;;;;;5062161;28;20115;-72
2024/04/04 04:08:12;;;;;;;17.75;4.25;;;12.70;96.50;;;;;;5059850;28;20045;-72
2024/04/04 04:10:38;;;;;;;16.55;4.65;;;12.60;96.60;;;;;;5058631;28;20021;-73
2024/04/04 04:13:04;;;;;;;16.30;4.28;;;12.60;96.60;;;;;;5061086;28;20036;-73
2024/04/04 04:15:30;;;;;;;15.48;3.67;;;12.60;96.70;;;;;;5058261;28;20819;-74
2024/04/04 04:17:56;;;;;;;15.55;4.82;;;12.70;96.60;;;;;;5061523;28;20024;-73
2024/04/04 04:23:06;;;;;;;15.77;5.18;;;12.60;96.70;;;;;;5057489;28;20436;-72
2024/04/04 04:25:32;;;;;;;14.05;3.38;;;12.60;96.80;;;;;;5060963;28;20547;-74
2024/04/04 04:27:58;;;;;;;15.05;4.32;;;12.60;96.90;;;;;;5063309;28;20025;-74
2024/04/04 04:30:23;;;;;;;15.80;4.35;;;12.60;96.90;;;;;;5063379;28;20031;-74
2024/04/04 04:32:50;;;;;;;15.30;4.20;;;12.60;97.00;;;;;;5065685;28;20056;-74
2024/04/04 04:35:15;;;;;;;11.68;3.20;;;12.60;97.00;;;;;;5061004;28;20021;-74
2024/04/04 04:37:41;;;;;;;14.27;4.57;;;12.60;97.10;;;;;;5061722;28;20495;-73
2024/04/04 04:40:07;;;;;;;15.90;4.25;;;12.60;97.10;;;;;;5061442;28;20065;-75
2024/04/04 04:42:33;;;;;;;12.63;3.30;;;12.60;97.10;;;;;;5054805;28;20404;-73
2024/04/04 04:44:58;;;;;;;15.23;4.20;;;12.60;97.20;;;;;;5058325;28;20040;-75
2024/04/04 04:47:24;;;;;;;14.23;3.72;;;12.60;97.20;;;;;;5065336;28;20031;-71
2024/04/04 04:49:50;;;;;;;13.70;3.53;;;12.60;97.20;;;;;;5061168;28;20036;-73
2024/04/04 04:52:19;;;;;;;14.15;4.00;;;12.60;97.20;;;;;;5062403;28;20041;-73
2024/04/04 04:54:45;;;;;;;11.70;3.47;;;12.60;97.30;;;;;;5055625;28;20538;-74
2024/04/04 04:57:11;;;;;;;13.35;3.90;;;12.60;97.30;;;;;;5057409;28;20036;-75
2024/04/04 04:59:36;;;;;;;13.73;3.90;;;12.60;97.30;;;;;;5060473;28;20048;-74
2024/04/04 05:02:02;;;;;;;14.55;4.32;;;12.60;97.40;;;;;;5059983;28;20039;-74
2024/04/04 05:04:28;;;;;;;10.43;3.53;;;12.60;97.40;;;;;;5061049;28;20042;-72
2024/04/04 05:06:54;;;;;;;12.90;3.90;;;12.60;97.40;;;;;;5059826;28;20032;-73
2024/04/04 05:09:20;;;;;;;12.55;3.42;;;12.60;97.40;;;;;;5060000;28;20032;-72
2024/04/04 05:11:46;;;;;;;10.60;3.13;;;12.60;97.50;;;;;;5060310;28;20040;-73
2024/04/04 05:14:12;;;;;;;12.45;3.90;;;12.60;97.50;;;;;;5059692;28;20032;-74
2024/04/04 05:16:42;;;;;;;13.88;3.58;;;12.60;97.50;;;;;;5059292;28;20028;-76
2024/04/04 05:19:08;;;;;;;11.45;3.33;;;12.60;97.50;;;;;;5068594;28;20119;-72
2024/04/04 05:21:33;;;;;;;11.32;3.95;;;12.60;97.50;;;;;;5049210;28;20030;-76
2024/04/04 05:24:00;;;;;;;14.55;4.22;;;12.60;97.60;;;;;;5059318;28;20029;-74
2024/04/04 05:26:26;;;;;;;10.55;3.72;;;12.60;97.60;;;;;;5058797;28;20140;-74
2024/04/04 05:28:52;;;;;;;11.32;3.72;;;12.60;97.60;;;;;;5061046;28;20443;-73
2024/04/04 05:31:18;;;;;;;11.52;3.70;;;12.60;97.60;;;;;;5062036;28;20051;-74
2024/04/04 05:33:44;;;;;;;12.45;3.70;;;12.60;97.70;;;;;;5060744;28;20033;-73
2024/04/04 05:36:10;;;;;;;16.05;4.03;;;12.60;97.70;;;;;;5060557;28;20116;-75
2024/04/04 05:38:37;;;;;;;11.18;3.88;;;12.60;97.80;;;;;;5057848;28;20500;-77
2024/04/04 05:41:08;;;;;;;12.15;3.50;;;12.60;97.70;;;;;;5053665;28;20048;-74
2024/04/04 05:43:34;;;;;;;17.92;3.38;;;12.60;97.70;;;;;;5058926;28;20404;-74
2024/04/04 05:46:00;;;;;;;11.48;3.55;;;12.60;97.70;;;;;;5057712;28;20025;-76
2024/04/04 05:48:26;;;;;;;12.23;3.90;;;12.60;97.70;;;;;;5068223;28;20029;-73
2024/04/04 05:50:57;;;;;;;10.10;2.83;;;12.60;97.60;;;;;;5058581;28;20115;-76
2024/04/04 05:53:23;;;;;;;10.73;3.40;;;12.60;97.70;;;;;;5049220;28;20194;-76
2024/04/04 05:55:49;;;;;;;10.40;3.35;;;12.60;97.70;;;;;;5055994;28;20032;-74
2024/04/04 05:58:15;;;;;;;11.90;3.78;;;12.60;97.70;;;;;;5062328;28;20560;-76
2024/04/04 06:00:41;;;;;;;12.90;3.17;;;12.50;97.70;;;;;;5056368;28;20020;-73
2024/04/04 06:03:06;;;;;;;11.73;3.50;;;12.50;97.70;;;;;;5058795;28;20089;-76
2024/04/04 06:05:32;;;;;;;10.95;3.30;;;12.50;97.60;;;;;;5055186;28;20032;-75
2024/04/04 06:07:57;;;;;;;9.30;3.28;;;12.60;97.60;;;;;;5050259;28;20362;-76
2024/04/04 06:10:23;;;;;;;10.63;3.45;;;12.60;97.60;;;;;;5057927;28;20032;-74
2024/04/04 06:12:49;;;;;;;7.97;3.42;;;12.50;97.60;;;;;;5052732;28;20045;-76
2024/04/04 06:15:15;;;;;;;9.68;3.17;;;12.50;97.60;;;;;;5058113;28;20035;-74
2024/04/04 06:17:40;;;;;;;9.27;3.30;;;12.50;97.50;;;;;;5052732;28;20040;-74
2024/04/04 06:20:06;;;;;;;9.60;3.47;;;12.50;97.60;;;;;;5058472;28;20029;-71
2024/04/04 06:22:32;;;;;;;10.20;3.45;;;12.60;97.60;;;;;;5058444;28;20496;-74
2024/04/04 06:24:58;;;;;;;12.27;3.80;;;12.50;97.50;;;;;;5053923;28;20148;-76
2024/04/04 06:27:24;;;;;;;8.48;2.90;;;12.50;97.50;;;;;;5056997;28;20485;-73
2024/04/04 06:29:49;;;;;;;8.23;2.90;;;12.50;97.50;;;;;;5058118;28;20505;-75
2024/04/04 06:32:15;;;;;;;9.80;3.35;;;12.50;97.50;;;;;;5058868;28;20045;-74
2024/04/04 06:34:41;;;;;;;10.13;3.10;;;12.50;97.50;;;;;;5054760;28;20037;-74
2024/04/04 06:37:07;;;;;;;14.73;3.50;;;12.50;97.60;;;;;;5059258;28;20381;-74
2024/04/04 06:39:34;;;;;;;10.65;3.55;;;12.60;97.60;;;;;;5058973;28;20070;-73
2024/04/04 06:41:59;;;;;;;12.52;3.40;;;12.60;97.60;;;;;;5059435;28;20115;-72
2024/04/04 06:44:25;;;;;;;13.10;3.88;;;12.60;97.50;;;;;;5057207;28;20021;-73
2024/04/04 06:46:50;;;;;;;8.80;2.90;;;12.60;97.40;;;;;;5067717;28;20025;-73
2024/04/04 06:49:16;;;;;;;9.10;3.15;;;12.60;97.40;;;;;;5058265;28;20858;-73
2024/04/04 06:51:42;;;;;;;14.10;2.97;;;12.60;97.40;;;;;;5063619;28;20067;-73
2024/04/04 06:54:09;;;;;;;8.35;2.95;;;12.60;97.30;;;;;;5061279;28;20055;-71
2024/04/04 06:56:35;;;;;;;9.13;3.25;;;12.60;97.20;;;;;;5062150;28;20044;-72
2024/04/04 06:59:01;;;;;;;8.38;2.88;;;12.70;97.20;;;;;;5061516;28;20040;-72
2024/04/04 07:01:29;;;;;;;12.95;3.40;;;12.70;97.10;;;;;;5061940;28;20051;-72
2024/04/04 07:03:56;;;;;;;11.50;2.85;;;12.70;97.00;;;;;;5062261;28;20074;-73
2024/04/04 07:06:22;;;;;;;8.23;2.63;;;12.70;97.00;;;;;;5066430;28;20109;-72
2024/04/04 07:08:48;;;;;;;10.93;2.88;;;12.70;97.00;;;;;;5068494;28;20036;-72
2024/04/04 07:11:13;;;;;;;12.70;3.22;;;12.70;97.00;;;;;;5071505;28;20049;-72
2024/04/04 07:13:39;;;;;;;8.30;2.72;;;12.80;96.90;;;;;;5059381;28;20036;-72
2024/04/04 07:16:07;;;;;;;9.23;2.60;;;12.80;96.70;;;;;;5070953;28;20028;-71
2024/04/04 07:18:33;;;;;;;9.65;2.80;;;12.80;96.60;;;;;;5064827;28;20037;-73
2024/04/04 07:21:00;;;;;;;6.70;2.60;;;12.90;96.40;;;;;;5068392;28;20028;-71
2024/04/04 07:23:26;;;;;;;7.25;2.75;;;12.90;96.10;;;;;;5060367;28;20029;-71
2024/04/04 07:25:53;;;;;;;7.85;2.40;;;13.00;95.90;;;;;;5064777;28;20036;-71
2024/04/04 07:28:19;;;;;;;9.02;2.67;;;13.00;95.60;;;;;;5067923;28;20043;-71
2024/04/04 07:30:45;;;;;;;9.95;2.50;;;13.10;95.50;;;;;;5067322;28;20021;-72
2024/04/04 07:33:11;;;;;;;7.95;2.13;;;13.00;94.90;;;;;;5069364;28;20070;-73
2024/04/04 07:35:38;;;;;;;6.70;2.05;;;13.00;94.20;;;;;;5067923;28;20032;-73
2024/04/04 07:38:08;;;;;;;6.68;1.90;;;12.90;93.60;;;;;;5071286;28;20035;-72
2024/04/04 07:40:40;;;;;;;9.32;2.20;;;12.90;93.20;;;;;;5062978;28;20029;-75
2024/04/04 07:43:08;;;;;;;5.10;1.63;;;12.90;92.50;;;;;;5064173;28;20318;-72
2024/04/04 07:45:41;;;;;;;7.65;1.60;;;12.90;92.10;;;;;;5063563;28;20039;-72
2024/04/04 07:48:09;;;;;;;7.93;2.10;;;13.00;91.90;;;;;;5072252;28;20036;-72
2024/04/04 07:50:36;;;;;;;3.35;1.65;;;13.00;91.30;;;;;;5065669;28;20016;-73
2024/04/04 07:53:03;;;;;;;4.97;1.63;;;13.10;90.60;;;;;;5064523;28;20142;-72
2024/04/04 07:55:29;;;;;;;6.40;1.75;;;13.10;90.00;;;;;;5066232;28;20016;-74
2024/04/04 07:57:55;;;;;;;6.25;1.70;;;13.20;89.10;;;;;;5065025;28;20032;-73
2024/04/04 08:00:21;;;;;;;6.18;1.88;;;13.30;88.70;;;;;;5066073;28;20066;-72
2024/04/04 08:02:47;;;;;;;5.70;1.60;;;13.30;88.30;;;;;;5067472;28;20024;-73
2024/04/04 08:05:13;;;;;;;4.55;1.55;;;13.30;87.70;;;;;;5062791;28;20024;-73
2024/04/04 08:07:38;;;;;;;5.30;1.60;;;13.30;87.10;;;;;;5063886;28;20028;-73
2024/04/04 08:10:07;;;;;;;4.05;1.55;;;13.30;85.80;;;;;;5058840;28;20036;-72
2024/04/04 08:12:35;;;;;;;4.90;1.90;;;13.30;85.40;;;;;;5058195;28;20037;-73
2024/04/04 08:15:09;;;;;;;7.15;2.10;;;13.40;84.80;;;;;;5051026;28;20033;-73
2024/04/04 08:17:36;;;;;;;6.13;1.73;;;13.40;84.50;;;;;;5057690;28;20032;-73
2024/04/04 08:20:03;;;;;;;5.28;2.00;;;13.80;84.50;;;;;;5060622;28;20731;-73
2024/04/04 08:22:29;;;;;;;7.05;1.33;;;14.10;83.40;;;;;;5042406;28;20036;-73
2024/04/04 08:24:55;;;;;;;7.07;1.77;;;14.20;82.70;;;;;;5060183;28;20053;-73
2024/04/04 08:27:20;;;;;;;8.55;2.40;;;14.20;82.90;;;;;;5058266;28;20033;-73
2024/04/04 08:29:47;;;;;;;6.97;1.63;;;14.20;81.20;;;;;;5032227;28;20098;-72
2024/04/04 08:32:14;;;;;;;6.05;1.73;;;14.10;81.70;;;;;;5059488;28;20055;-73
2024/04/04 08:34:41;;;;;;;5.05;1.60;;;14.10;81.70;;;;;;5060125;28;20039;-73
2024/04/04 08:37:07;;;;;;;8.15;1.70;;;14.20;82.10;;;;;;5058578;28;20021;-72
2024/04/04 08:39:32;;;;;;;11.65;2.05;;;14.20;82.20;;;;;;5063994;28;20316;-72
2024/04/04 08:41:58;;;;;;;9.23;1.92;;;14.30;81.40;;;;;;5057622;28;20583;-74
2024/04/04 08:44:25;;;;;;;5.82;1.92;;;14.20;81.00;;;;;;5063175;28;20400;-72
2024/04/04 08:46:53;;;;;;;6.35;1.95;;;14.20;81.70;;;;;;5056738;28;20024;-74
2024/04/04 08:49:20;;;;;;;6.82;1.70;;;14.00;82.50;;;;;;5037786;28;20063;-74
2024/04/04 08:51:47;;;;;;;7.38;1.85;;;14.10;82.20;;;;;;5054873;28;20110;-71
2024/04/04 08:54:17;;;;;;;8.10;2.20;;;14.30;82.10;;;;;;5058073;28;20132;-75
2024/04/04 08:56:44;;;;;;;5.88;1.63;;;14.50;81.80;;;;;;5059910;28;20033;-73
2024/04/04 08:59:10;;;;;;;9.65;1.70;;;14.60;81.90;;;;;;5055119;28;20047;-71
2024/04/04 09:01:36;;;;;;;8.48;2.20;;;14.90;80.80;;;;;;5056609;28;20033;-72
2024/04/04 09:04:01;;;;;;;8.30;2.55;;;15.30;81.00;;;;;;5061635;28;20021;-74
2024/04/04 09:06:27;;;;;;;6.80;1.70;;;15.50;80.10;;;;;;5040473;28;20025;-72
2024/04/04 09:08:59;;;;;;;10.15;2.10;;;15.40;79.60;;;;;;5059848;28;20040;-72
2024/04/04 09:11:28;;;;;;;9.55;2.28;;;15.40;80.10;;;;;;5055600;28;20604;-71
2024/04/04 09:14:09;;;;;;;10.05;2.30;;;15.40;80.50;;;;;;5061370;28;20032;-73
2024/04/04 09:16:45;;;;;;;9.85;2.25;;;15.40;79.30;;;;;;5058492;28;20508;-72
2024/04/04 09:19:15;;;;;;;13.07;2.78;;;15.40;79.80;;;;;;5066356;28;20029;-71
2024/04/04 09:21:45;;;;;;;13.18;3.42;;;15.40;80.20;;;;;;5062880;28;20039;-72
2024/04/04 09:24:18;;;;;;;10.85;2.83;;;15.50;80.20;;;;;;5052798;28;20045;-73
2024/04/04 09:26:44;;;;;;;10.57;2.92;;;15.60;79.80;;;;;;5058714;28;20040;-72
2024/04/04 09:29:14;;;;;;;16.13;3.42;;;15.50;79.30;;;;;;5056165;28;20058;-73
2024/04/04 09:31:41;;;;;;;11.70;2.78;;;15.50;79.70;;;;;;5058614;28;20029;-73
2024/04/04 09:34:10;;;;;;;10.93;2.53;;;15.70;79.90;;;;;;5055633;28;20041;-74
2024/04/04 09:36:37;;;;;;;15.98;3.50;;;15.80;78.90;;;;;;5059807;28;20044;-75
2024/04/04 09:39:08;;;;;;;10.75;2.85;;;15.80;79.10;;;;;;5058868;28;20032;-73
2024/04/04 09:41:37;;;;;;;13.63;3.00;;;15.50;79.50;;;;;;5057886;28;20067;-74
2024/04/04 09:44:05;;;;;;;14.07;3.33;;;15.50;79.80;;;;;;5058079;28;20086;-73
2024/04/04 09:46:34;;;;;;;16.50;4.57;;;15.60;79.20;;;;;;5056212;28;20033;-72
2024/04/04 09:49:00;;;;;;;15.20;3.95;;;15.50;79.10;;;;;;5053758;28;20111;-73
2024/04/04 09:51:27;;;;;;;15.07;4.53;;;15.80;79.40;;;;;;5057520;28;20044;-73
2024/04/04 09:53:55;;;;;;;16.40;3.33;;;15.90;78.30;;;;;;5056708;28;20417;-73
2024/04/04 09:56:23;;;;;;;13.73;4.13;;;15.90;78.30;;;;;;5055545;28;20374;-73
2024/04/04 09:58:49;;;;;;;18.33;3.40;;;16.20;77.40;;;;;;5037657;28;20047;-73
2024/04/04 10:01:25;;;;;;;16.25;3.58;;;16.10;77.60;;;;;;5037689;28;20358;-72
2024/04/04 10:03:58;;;;;;;20.75;4.07;;;16.30;77.20;;;;;;5049390;28;20369;-72
2024/04/04 10:06:40;;;;;;;16.60;3.92;;;16.40;76.40;;;;;;5053581;28;20037;-72
2024/04/04 10:09:24;;;;;;;21.02;4.53;;;16.40;76.80;;;;;;5056684;28;20632;-72
2024/04/04 10:11:51;;;;;;;17.75;4.25;;;16.10;77.60;;;;;;5054840;28;20039;-73
2024/04/04 10:14:21;;;;;;;23.98;4.35;;;16.10;76.50;;;;;;5055302;28;20071;-72
2024/04/04 10:16:50;;;;;;;18.88;4.00;;;15.90;77.60;;;;;;5054291;28;20067;-73
2024/04/04 10:19:20;;;;;;;21.65;4.50;;;16.00;78.40;;;;;;5056491;28;20048;-73
2024/04/04 10:21:47;;;;;;;20.13;3.65;;;16.30;78.00;;;;;;5055054;28;20067;-72
2024/04/04 10:24:20;;;;;;;15.00;3.58;;;16.60;76.90;;;;;;5049984;28;20124;-73
2024/04/04 10:26:55;;;;;;;16.77;4.13;;;16.90;76.70;;;;;;5036489;28;20048;-74
2024/04/04 10:29:22;;;;;;;19.63;4.35;;;16.70;76.50;;;;;;5053262;28;20074;-72
2024/04/04 10:31:49;;;;;;;17.33;3.97;;;16.30;76.50;;;;;;5048855;28;20484;-74
2024/04/04 10:34:15;;;;;;;22.20;4.53;;;16.20;78.00;;;;;;5047188;28;20064;-75
2024/04/04 10:36:42;;;;;;;21.67;4.75;;;16.50;80.20;;;;;;5054850;28;20107;-74
2024/04/04 10:39:10;;;;;;;17.70;4.25;;;16.60;80.20;;;;;;5055103;28;20189;-74
2024/04/04 10:41:36;;;;;;;17.27;3.92;;;16.70;79.70;;;;;;5052585;28;20091;-74
2024/04/04 10:44:09;;;;;;;16.08;3.63;;;17.00;78.10;;;;;;5053428;28;20375;-74
2024/04/04 10:46:49;;;;;;;19.55;4.03;;;17.10;76.40;;;;;;5054541;28;20047;-73
2024/04/04 10:49:17;;;;;;;15.57;3.60;;;17.30;74.90;;;;;;5050798;28;20033;-74
2024/04/04 10:51:50;;;;;;;14.10;3.97;;;17.30;74.10;;;;;;5051166;28;20036;-74
2024/04/04 10:54:17;;;;;;;19.08;3.53;;;16.90;74.30;;;;;;5051421;28;20108;-74
2024/04/04 10:56:45;;;;;;;17.25;4.20;;;16.70;76.50;;;;;;5050152;28;20124;-74
2024/04/04 10:59:15;;;;;;;18.08;4.65;;;16.80;76.70;;;;;;5041779;28;20056;-73
2024/04/04 11:01:41;;;;;;;19.77;4.75;;;17.20;74.50;;;;;;5048290;28;20148;-73
2024/04/04 11:04:10;;;;;;;18.88;3.78;;;17.00;74.00;;;;;;5048858;28;20037;-74
2024/04/04 11:06:37;;;;;;;19.60;4.85;;;16.60;72.60;;;;;;5050998;28;20029;-74
2024/04/04 11:09:10;;;;;;;21.73;5.38;;;16.60;73.50;;;;;;5039275;28;20585;-74
2024/04/04 11:11:40;;;;;;;16.87;5.07;;;16.70;74.00;;;;;;5054370;28;20029;-74
2024/04/04 11:14:06;;;;;;;18.58;4.80;;;16.50;73.50;;;;;;5052362;28;20032;-74
2024/04/04 11:16:32;;;;;;;18.83;4.63;;;16.70;73.90;;;;;;5052739;28;20795;-74
2024/04/04 11:18:58;;;;;;;21.20;4.68;;;17.40;73.10;;;;;;5052892;28;20565;-73
2024/04/04 11:21:24;;;;;;;22.63;4.55;;;17.60;71.30;;;;;;5051751;28;20892;-72
2024/04/04 11:23:50;;;;;;;23.90;5.35;;;17.50;70.50;;;;;;5049482;28;20158;-73
2024/04/04 11:26:18;;;;;;;20.90;4.47;;;17.60;70.70;;;;;;5051016;28;20041;-74
2024/04/04 11:28:43;;;;;;;19.50;4.55;;;17.80;70.20;;;;;;5050289;28;20067;-72
2024/04/04 11:31:09;;;;;;;19.23;4.50;;;18.00;69.90;;;;;;5044177;28;20128;-72
2024/04/04 11:33:35;;;;;;;21.48;4.82;;;18.20;69.00;;;;;;5041177;28;20820;-74
2024/04/04 11:36:01;;;;;;;26.77;4.90;;;17.90;69.60;;;;;;5049842;28;20029;-72
2024/04/04 11:38:26;;;;;;;17.70;4.40;;;18.30;68.00;;;;;;5055895;28;20090;-74
2024/04/04 11:40:52;;;;;;;24.15;4.93;;;18.20;68.70;;;;;;5055145;28;20099;-73
2024/04/04 11:43:18;;;;;;;20.70;4.68;;;18.20;68.90;;;;;;5055581;28;20579;-72
2024/04/04 11:45:44;;;;;;;22.52;4.60;;;18.20;69.20;;;;;;5062906;28;20097;-73
2024/04/04 11:48:09;;;;;;;20.30;4.93;;;17.90;68.10;;;;;;5055288;28;20013;-74
2024/04/04 11:50:36;;;;;;;20.27;4.50;;;17.70;68.70;;;;;;5056679;28;20033;-73
2024/04/04 11:53:02;;;;;;;19.17;4.47;;;17.40;68.70;;;;;;5058851;28;20123;-73
2024/04/04 11:55:28;;;;;;;23.52;4.53;;;17.40;69.70;;;;;;5034021;28;20855;-74
2024/04/04 11:57:54;;;;;;;20.15;4.07;;;17.10;69.50;;;;;;5047913;28;20032;-74
2024/04/04 12:00:20;;;;;;;21.20;4.28;;;17.10;71.00;;;;;;5050948;28;20035;-74
2024/04/04 12:02:47;;;;;;;19.70;5.05;;;17.40;70.60;;;;;;5059309;28;20111;-74
2024/04/04 12:05:14;;;;;;;22.70;5.47;;;17.30;68.30;;;;;;5050064;28;20041;-73
2024/04/04 12:07:41;;;;;;;20.60;4.78;;;17.30;71.00;;;;;;5055117;28;20117;-74
2024/04/04 12:10:07;;;;;;;19.30;4.45;;;17.30;75.20;;;;;;5059697;28;20119;-74
2024/04/04 12:12:33;;;;;;;20.33;4.72;;;17.30;74.50;;;;;;5054096;28;20048;-74
2024/04/04 12:14:58;;;;;;;16.70;4.55;;;17.10;74.80;;;;;;5057748;28;20040;-74
2024/04/04 12:17:24;;;;;;;19.40;4.20;;;16.80;71.90;;;;;;5052468;28;20036;-74
2024/04/04 12:19:50;;;;;;;28.70;5.63;;;16.90;71.90;;;;;;5059508;28;20097;-74
2024/04/04 12:22:15;;;;;;;16.80;4.43;;;17.10;70.30;;;;;;5058113;28;20132;-73
2024/04/04 12:24:41;;;;;;;21.55;4.35;;;17.30;70.00;;;;;;5045381;28;20098;-75
2024/04/04 12:27:08;;;;;;;17.95;4.50;;;17.60;69.30;;;;;;5060804;28;20219;-74
2024/04/04 12:29:33;;;;;;;15.25;3.90;;;18.00;69.30;;;;;;5059353;28;20049;-74
2024/04/04 12:31:59;;;;;;;17.40;4.72;;;17.80;67.50;;;;;;5058362;28;20037;-73
2024/04/04 12:34:25;;;;;;;23.42;4.50;;;17.70;67.40;;;;;;5052049;28;20393;-73
2024/04/04 12:36:51;;;;;;;22.48;5.25;;;17.50;67.70;;;;;;5059451;28;20021;-72
2024/04/04 12:39:19;;;;;;;19.35;4.72;;;17.60;68.40;;;;;;5057264;28;20040;-74
2024/04/04 12:41:44;;;;;;;21.95;4.45;;;17.60;67.80;;;;;;5058590;28;20094;-72